createdAt,value
2024-03-01T00:01:36.341Z,40.90
2024-03-01T00:04:04.244Z,40.50
2024-03-01T00:06:31.939Z,37.00
2024-03-01T00:08:59.756Z,32.50
2024-03-01T00:11:27.558Z,37.80
2024-03-01T00:13:55.285Z,37.80
2024-03-01T00:16:23.079Z,37.90
2024-03-01T00:18:50.615Z,38.50
2024-03-01T00:21:18.269Z,38.50
2024-03-01T00:23:46.127Z,31.10
2024-03-01T00:26:13.897Z,35.40
2024-03-01T00:28:41.556Z,34.00
2024-03-01T00:31:09.134Z,38.30
2024-03-01T00:33:36.670Z,36.60
2024-03-01T00:36:04.436Z,35.40
2024-03-01T00:38:32.088Z,37.00
2024-03-01T00:40:59.855Z,32.80
2024-03-01T00:43:27.930Z,36.60
2024-03-01T00:45:55.825Z,39.20
2024-03-01T00:48:23.564Z,38.80
2024-03-01T00:50:51.113Z,35.30
2024-03-01T00:53:18.679Z,40.10
2024-03-01T00:55:46.237Z,37.70
2024-03-01T00:58:14.029Z,40.90
2024-03-01T01:00:41.667Z,37.60
2024-03-01T01:03:09.431Z,40.10
2024-03-01T01:05:37.099Z,42.20
2024-03-01T01:08:04.752Z,36.00
2024-03-01T01:10:32.610Z,37.20
2024-03-01T01:13:00.629Z,35.60
2024-03-01T01:15:28.451Z,36.20
2024-03-01T01:17:56.042Z,32.40
2024-03-01T01:20:23.694Z,33.40
2024-03-01T01:22:51.435Z,32.70
2024-03-01T01:25:19.049Z,32.00
2024-03-01T01:27:47.061Z,33.10
2024-03-01T01:30:14.625Z,32.80
2024-03-01T01:32:42.428Z,32.30
2024-03-01T01:35:10.043Z,32.50
2024-03-01T01:37:37.898Z,34.70
2024-03-01T01:40:05.528Z,30.80
2024-03-01T01:42:33.343Z,36.40
2024-03-01T01:45:00.895Z,34.60
2024-03-01T01:47:28.573Z,35.30
2024-03-01T01:49:56.123Z,37.00
2024-03-01T01:52:23.850Z,37.50
2024-03-01T01:54:51.664Z,37.50
2024-03-01T01:57:19.202Z,32.50
2024-03-01T01:59:46.858Z,32.10
2024-03-01T02:02:14.517Z,33.70
2024-03-01T02:04:42.074Z,30.70
2024-03-01T02:07:09.701Z,32.70
2024-03-01T02:09:37.505Z,34.70
2024-03-01T02:12:05.126Z,31.10
2024-03-01T02:14:32.928Z,28.70
2024-03-01T02:17:00.529Z,30.20
2024-03-01T02:19:28.301Z,30.50
2024-03-01T02:21:56.038Z,32.30
2024-03-01T02:24:23.803Z,33.20
2024-03-01T02:26:51.342Z,31.50
2024-03-01T02:29:19.198Z,30.40
2024-03-01T02:31:46.767Z,29.90
2024-03-01T02:34:14.383Z,31.50
2024-03-01T02:36:42.086Z,29.50
2024-03-01T02:39:09.854Z,35.20
2024-03-01T02:41:37.410Z,35.70
2024-03-01T02:44:04.971Z,34.70
2024-03-01T02:46:32.667Z,30.40
2024-03-01T02:49:00.851Z,29.70
2024-03-01T02:51:28.460Z,26.50
2024-03-01T02:53:56.129Z,28.00
2024-03-01T02:56:23.801Z,29.40
2024-03-01T02:58:51.350Z,29.20
2024-03-01T03:01:18.948Z,35.10
2024-03-01T03:03:46.694Z,31.80
2024-03-01T03:06:14.328Z,35.00
2024-03-01T03:08:42.192Z,36.60
2024-03-01T03:11:09.882Z,34.30
2024-03-01T03:13:37.435Z,30.60
2024-03-01T03:16:05.109Z,32.30
2024-03-01T03:18:32.730Z,32.40
2024-03-01T03:21:00.301Z,29.20
2024-03-01T03:23:27.967Z,34.50
2024-03-01T03:25:55.534Z,36.00
2024-03-01T03:28:23.327Z,44.10
2024-03-01T03:30:51.690Z,41.50
2024-03-01T03:33:19.348Z,39.10
2024-03-01T03:35:46.983Z,38.30
2024-03-01T03:38:14.860Z,33.20
2024-03-01T03:40:42.574Z,32.40
2024-03-01T03:43:10.406Z,31.40
2024-03-01T03:45:38.030Z,37.10
2024-03-01T03:48:06.004Z,36.50
2024-03-01T03:50:34.200Z,38.10
2024-03-01T03:53:01.838Z,37.50
2024-03-01T03:55:29.534Z,37.00
2024-03-01T03:57:56.991Z,37.50
2024-03-01T04:00:24.514Z,36.70
2024-03-01T04:02:52.096Z,38.20
2024-03-01T04:05:19.694Z,38.90
2024-03-01T04:07:47.289Z,37.80
2024-03-01T04:10:14.894Z,35.50
2024-03-01T04:12:42.513Z,37.70
2024-03-01T04:15:10.524Z,36.30
2024-03-01T04:17:38.243Z,34.70
2024-03-01T04:20:05.932Z,32.40
2024-03-01T04:22:33.514Z,43.20
2024-03-01T04:25:01.263Z,42.40
2024-03-01T04:27:28.996Z,43.60
2024-03-01T04:29:56.562Z,40.00
2024-03-01T04:32:24.119Z,38.30
2024-03-01T04:34:51.668Z,36.60
2024-03-01T04:37:19.551Z,37.40
2024-03-01T04:39:47.207Z,34.60
2024-03-01T04:42:14.782Z,35.80
2024-03-01T04:44:42.505Z,34.90
2024-03-01T04:47:10.186Z,38.20
2024-03-01T04:49:37.844Z,32.80
2024-03-01T04:52:05.567Z,36.10
2024-03-01T04:54:33.566Z,42.60
2024-03-01T04:57:01.152Z,40.90
2024-03-01T04:59:28.690Z,38.00
2024-03-01T05:01:56.300Z,43.10
2024-03-01T05:04:23.932Z,37.50
2024-03-01T05:06:51.584Z,35.00
2024-03-01T05:09:19.133Z,38.10
2024-03-01T05:11:46.807Z,33.10
2024-03-01T05:14:14.353Z,38.60
2024-03-01T05:16:42.320Z,38.10
2024-03-01T05:19:09.986Z,33.50
2024-03-01T05:21:37.639Z,39.20
2024-03-01T05:24:05.202Z,41.40
2024-03-01T05:26:32.667Z,35.70
2024-03-01T05:29:00.235Z,36.50
2024-03-01T05:31:32.412Z,37.40
2024-03-01T05:34:01.734Z,36.10
2024-03-01T05:36:29.449Z,36.40
2024-03-01T05:38:57.009Z,46.70
2024-03-01T05:41:24.571Z,46.00
2024-03-01T05:43:52.128Z,46.50
2024-03-01T05:46:19.730Z,42.50
2024-03-01T05:48:47.342Z,43.40
2024-03-01T05:51:14.911Z,51.10
2024-03-01T05:53:42.774Z,49.50
2024-03-01T05:56:10.742Z,43.20
2024-03-01T05:58:38.455Z,34.50
2024-03-01T06:01:06.219Z,44.50
2024-03-01T06:03:34.028Z,31.00
2024-03-01T06:06:01.589Z,30.40
2024-03-01T06:08:29.246Z,29.00
2024-03-01T06:10:56.899Z,29.30
2024-03-01T06:13:24.692Z,36.60
2024-03-01T06:15:52.727Z,58.20
2024-03-01T06:18:20.533Z,42.60
2024-03-01T06:20:48.182Z,35.80
2024-03-01T06:23:15.828Z,28.70
2024-03-01T06:25:43.515Z,40.30
2024-03-01T06:28:11.217Z,46.40
2024-03-01T06:30:40.988Z,33.20
2024-03-01T06:33:09.674Z,36.80
2024-03-01T06:35:37.233Z,40.50
2024-03-01T06:38:04.683Z,40.20
2024-03-01T06:40:32.272Z,38.20
2024-03-01T06:42:59.939Z,38.70
2024-03-01T06:45:27.656Z,36.90
2024-03-01T06:47:55.052Z,38.20
2024-03-01T06:50:22.768Z,41.40
2024-03-01T06:52:50.450Z,41.40
2024-03-01T06:55:18.030Z,37.90
2024-03-01T06:57:45.654Z,41.40
2024-03-01T07:00:13.213Z,39.90
2024-03-01T07:02:41.201Z,36.00
2024-03-01T07:05:08.847Z,40.20
2024-03-01T07:07:36.585Z,41.20
2024-03-01T07:10:04.370Z,40.80
2024-03-01T07:12:32.062Z,37.40
2024-03-01T07:14:59.582Z,37.90
2024-03-01T07:17:27.184Z,42.90
2024-03-01T07:19:54.914Z,44.20
2024-03-01T07:22:22.511Z,42.00
2024-03-01T07:24:50.448Z,42.90
2024-03-01T07:27:17.999Z,43.50
2024-03-01T07:29:45.661Z,41.80
2024-03-01T07:32:13.215Z,45.10
2024-03-01T07:34:40.906Z,44.90
2024-03-01T07:37:08.461Z,48.40
2024-03-01T07:39:35.893Z,49.60
2024-03-01T07:42:03.450Z,46.20
2024-03-01T07:44:31.123Z,48.30
2024-03-01T07:46:59.242Z,47.30
2024-03-01T07:49:27.192Z,45.50
2024-03-01T07:51:54.983Z,42.70
2024-03-01T07:54:22.797Z,41.20
2024-03-01T07:56:50.444Z,50.30
2024-03-01T07:59:18.167Z,52.00
2024-03-01T08:01:45.917Z,51.50
2024-03-01T08:04:13.557Z,47.50
2024-03-01T08:06:41.507Z,50.10
2024-03-01T08:09:09.058Z,47.40
2024-03-01T08:11:36.762Z,43.60
2024-03-01T08:14:04.383Z,44.60
2024-03-01T08:16:32.112Z,44.40
2024-03-01T08:18:59.925Z,44.60
2024-03-01T08:21:27.468Z,44.20
2024-03-01T08:23:55.140Z,46.30
2024-03-01T08:26:22.812Z,42.90
2024-03-01T08:28:50.584Z,41.40
2024-03-01T08:31:18.229Z,43.30
2024-03-01T08:33:45.879Z,43.40
2024-03-01T08:36:13.430Z,42.30
2024-03-01T08:38:41.060Z,42.50
2024-03-01T08:41:08.861Z,38.80
2024-03-01T08:43:36.577Z,39.00
2024-03-01T08:46:04.291Z,38.00
2024-03-01T08:48:31.840Z,39.90
2024-03-01T08:50:59.398Z,42.10
2024-03-01T08:53:26.962Z,40.40
2024-03-01T08:55:54.517Z,41.60
2024-03-01T08:58:22.200Z,37.00
2024-03-01T09:00:49.754Z,34.90
2024-03-01T09:03:17.302Z,34.20
2024-03-01T09:05:44.860Z,34.60
2024-03-01T09:08:12.532Z,34.30
2024-03-01T09:10:40.192Z,33.40
2024-03-01T09:13:08.092Z,36.00
2024-03-01T09:15:35.702Z,39.30
2024-03-01T09:18:03.079Z,38.90
2024-03-01T09:20:30.725Z,35.90
2024-03-01T09:22:58.292Z,38.00
2024-03-01T09:25:25.854Z,32.70
2024-03-01T09:27:53.444Z,33.50
2024-03-01T09:30:21.077Z,31.70
2024-03-01T09:32:49.175Z,31.80
2024-03-01T09:35:16.790Z,30.60
2024-03-01T09:37:44.456Z,29.50
2024-03-01T09:40:12.290Z,29.10
2024-03-01T09:42:39.985Z,29.40
2024-03-01T09:45:07.643Z,26.40
2024-03-01T09:47:35.214Z,26.90
2024-03-01T09:50:02.979Z,24.10
2024-03-01T09:52:30.903Z,23.40
2024-03-01T09:54:58.851Z,22.60
2024-03-01T09:57:26.461Z,24.40
2024-03-01T09:59:54.030Z,26.30
2024-03-01T10:02:21.682Z,23.40
2024-03-01T10:04:49.329Z,25.40
2024-03-01T10:07:17.055Z,24.80
2024-03-01T10:09:44.772Z,24.10
2024-03-01T10:12:12.648Z,23.20
2024-03-01T10:14:40.292Z,21.50
2024-03-01T10:17:09.648Z,25.00
2024-03-01T10:19:38.782Z,18.70
2024-03-01T10:22:06.511Z,23.20
2024-03-01T10:24:34.261Z,21.80
2024-03-01T10:27:01.781Z,23.90
2024-03-01T10:29:29.331Z,23.90
2024-03-01T10:31:56.994Z,22.70
2024-03-01T10:34:24.932Z,23.10
2024-03-01T10:36:52.637Z,23.20
2024-03-01T10:39:20.288Z,21.40
2024-03-01T10:41:48.047Z,19.90
2024-03-01T10:44:15.625Z,19.30
2024-03-01T10:46:43.297Z,18.90
2024-03-01T10:49:10.907Z,17.50
2024-03-01T10:51:38.592Z,18.30
2024-03-01T10:54:06.159Z,19.50
2024-03-01T10:56:33.811Z,16.80
2024-03-01T10:59:01.380Z,17.00
2024-03-01T11:01:29.163Z,16.70
2024-03-01T11:03:57.191Z,16.50
2024-03-01T11:06:24.873Z,17.00
2024-03-01T11:08:52.434Z,18.30
2024-03-01T11:11:20.010Z,16.20
2024-03-01T11:13:48.100Z,17.20
2024-03-01T11:16:15.645Z,17.20
2024-03-01T11:18:43.276Z,18.30
2024-03-01T11:21:10.838Z,17.70
2024-03-01T11:23:38.506Z,21.80
2024-03-01T11:26:06.052Z,20.80
2024-03-01T11:28:33.716Z,23.30
2024-03-01T11:31:01.536Z,23.20
2024-03-01T11:33:29.274Z,25.60
2024-03-01T11:35:57.123Z,18.70
2024-03-01T11:38:24.680Z,16.40
2024-03-01T11:40:52.237Z,15.40
2024-03-01T11:43:19.836Z,15.00
2024-03-01T11:45:47.862Z,16.50
2024-03-01T11:48:15.544Z,15.30
2024-03-01T11:50:43.299Z,15.70
2024-03-01T11:53:13.814Z,16.70
2024-03-01T11:55:41.751Z,16.00
2024-03-01T11:58:09.484Z,17.50
2024-03-01T12:00:37.285Z,18.10
2024-03-01T12:03:04.974Z,16.10
2024-03-01T12:05:32.666Z,18.80
2024-03-01T12:08:02.004Z,16.90
2024-03-01T12:10:30.754Z,20.30
2024-03-01T12:12:58.295Z,17.30
2024-03-01T12:15:25.836Z,20.20
2024-03-01T12:17:53.447Z,19.90
2024-03-01T12:20:21.564Z,19.20
2024-03-01T12:22:49.442Z,19.90
2024-03-01T12:25:17.252Z,19.40
2024-03-01T12:27:45.067Z,19.60
2024-03-01T12:30:12.641Z,18.30
2024-03-01T12:32:40.302Z,18.40
2024-03-01T12:35:07.854Z,18.10
2024-03-01T12:37:35.634Z,16.70
2024-03-01T12:40:03.801Z,17.30
2024-03-01T12:42:31.440Z,17.80
2024-03-01T12:44:59.105Z,16.60
2024-03-01T12:47:26.680Z,17.30
2024-03-01T12:49:54.327Z,17.40
2024-03-01T12:52:22.001Z,17.50
2024-03-01T12:54:49.646Z,17.10
2024-03-01T12:57:17.416Z,17.40
2024-03-01T12:59:45.296Z,16.90
2024-03-01T13:02:13.147Z,16.10
2024-03-01T13:04:40.753Z,16.70
2024-03-01T13:07:08.510Z,14.30
2024-03-01T13:09:36.029Z,16.40
2024-03-01T13:12:03.772Z,16.90
2024-03-01T13:14:31.460Z,16.90
2024-03-01T13:16:59.017Z,14.90
2024-03-01T13:19:26.897Z,16.20
2024-03-01T13:21:54.536Z,16.00
2024-03-01T13:24:22.093Z,15.50
2024-03-01T13:26:49.762Z,17.40
2024-03-01T13:29:17.310Z,18.40
2024-03-01T13:31:44.890Z,19.20
2024-03-01T13:34:12.585Z,18.30
2024-03-01T13:36:40.196Z,19.90
2024-03-01T13:39:07.860Z,19.40
2024-03-01T13:41:35.423Z,20.90
2024-03-01T13:44:02.975Z,20.00
2024-03-01T13:46:30.552Z,20.10
2024-03-01T13:48:58.200Z,19.70
2024-03-01T13:51:25.857Z,20.60
2024-03-01T13:53:53.518Z,20.00
2024-03-01T13:56:20.972Z,21.00
2024-03-01T13:58:48.889Z,25.30
2024-03-01T14:01:16.661Z,21.60
2024-03-01T14:03:44.464Z,22.50
2024-03-01T14:06:12.132Z,21.10
2024-03-01T14:08:39.789Z,19.70
2024-03-01T14:11:07.345Z,23.50
2024-03-01T14:13:35.079Z,21.90
2024-03-01T14:16:02.939Z,22.00
2024-03-01T14:18:30.653Z,22.20
2024-03-01T14:20:58.625Z,20.70
2024-03-01T14:23:26.170Z,23.70
2024-03-01T14:25:54.002Z,30.40
2024-03-01T14:28:21.617Z,24.50
2024-03-01T14:30:49.438Z,19.60
2024-03-01T14:33:17.389Z,22.80
2024-03-01T14:35:44.997Z,22.80
2024-03-01T14:38:12.693Z,22.70
2024-03-01T14:40:40.779Z,22.70
2024-03-01T14:43:08.732Z,21.50
2024-03-01T14:45:36.461Z,21.00
2024-03-01T14:48:03.995Z,21.70
2024-03-01T14:50:31.787Z,22.60
2024-03-01T14:52:59.366Z,20.80
2024-03-01T14:55:27.113Z,21.40
2024-03-01T14:57:54.706Z,21.40
2024-03-01T15:00:22.429Z,20.40
2024-03-01T15:02:49.991Z,20.20
2024-03-01T15:05:18.074Z,18.90
2024-03-01T15:07:45.766Z,19.30
2024-03-01T15:10:13.407Z,20.70
2024-03-01T15:12:41.143Z,23.50
2024-03-01T15:15:08.698Z,21.00
2024-03-01T15:17:36.301Z,20.10
2024-03-01T15:20:04.024Z,18.50
2024-03-01T15:22:31.713Z,17.80
2024-03-01T15:24:59.356Z,22.20
2024-03-01T15:27:27.207Z,21.20
2024-03-01T15:29:54.987Z,20.10
2024-03-01T15:32:22.532Z,19.60
2024-03-01T15:34:50.231Z,18.20
2024-03-01T15:37:17.876Z,20.20
2024-03-01T15:39:45.617Z,18.70
2024-03-01T15:42:13.277Z,20.60
2024-03-01T15:44:40.855Z,19.60
2024-03-01T15:47:08.808Z,19.10
2024-03-01T15:49:36.399Z,20.60
2024-03-01T15:52:04.056Z,19.50
2024-03-01T15:54:31.797Z,20.20
2024-03-01T15:56:59.451Z,21.10
2024-03-01T15:59:27.122Z,20.00
2024-03-01T16:01:54.849Z,21.90
2024-03-01T16:04:22.545Z,18.70
2024-03-01T16:06:50.401Z,20.50
2024-03-01T16:09:17.963Z,19.10
2024-03-01T16:11:45.669Z,21.20
2024-03-01T16:14:13.364Z,21.60
2024-03-01T16:16:41.223Z,21.20
2024-03-01T16:19:09.086Z,20.60
2024-03-01T16:21:36.884Z,23.70
2024-03-01T16:24:04.443Z,21.00
2024-03-01T16:26:32.041Z,20.50
2024-03-01T16:28:59.564Z,21.30
2024-03-01T16:31:27.129Z,21.20
2024-03-01T16:33:54.682Z,20.60
2024-03-01T16:36:22.229Z,20.20
2024-03-01T16:38:50.230Z,22.10
2024-03-01T16:41:17.969Z,21.20
2024-03-01T16:43:45.622Z,20.70
2024-03-01T16:46:13.300Z,21.50
2024-03-01T16:48:40.953Z,22.30
2024-03-01T16:51:08.610Z,23.60
2024-03-01T16:53:36.174Z,23.40
2024-03-01T16:56:03.929Z,22.60
2024-03-01T16:58:31.638Z,23.20
2024-03-01T17:00:59.324Z,23.90
2024-03-01T17:03:27.017Z,24.00
2024-03-01T17:05:54.596Z,22.10
2024-03-01T17:08:22.139Z,24.60
2024-03-01T17:10:49.919Z,25.50
2024-03-01T17:13:17.577Z,25.10
2024-03-01T17:15:45.229Z,25.80
2024-03-01T17:18:12.839Z,25.10
2024-03-01T17:20:40.642Z,25.60
2024-03-01T17:23:08.425Z,25.80
2024-03-01T17:25:36.030Z,26.30
2024-03-01T17:28:03.547Z,27.00
2024-03-01T17:30:31.495Z,26.60
2024-03-01T17:32:59.091Z,28.50
2024-03-01T17:35:26.628Z,32.20
2024-03-01T17:37:54.169Z,36.60
2024-03-01T17:40:21.776Z,41.30
2024-03-01T17:42:49.400Z,36.80
2024-03-01T17:45:17.165Z,36.80
2024-03-01T17:47:44.742Z,36.90
2024-03-01T17:50:12.394Z,37.20
2024-03-01T17:52:40.304Z,33.80
2024-03-01T17:55:08.129Z,34.50
2024-03-01T17:57:35.878Z,35.90
2024-03-01T18:00:03.445Z,37.50
2024-03-01T18:02:31.102Z,39.20
2024-03-01T18:04:58.656Z,44.00
2024-03-01T18:07:26.372Z,42.00
2024-03-01T18:09:53.977Z,46.10
2024-03-01T18:12:21.954Z,43.50
2024-03-01T18:14:49.605Z,44.10
2024-03-01T18:17:17.281Z,40.20
2024-03-01T18:19:44.901Z,49.70
2024-03-01T18:22:12.713Z,39.50
2024-03-01T18:24:40.253Z,36.40
2024-03-01T18:27:08.012Z,32.30
2024-03-01T18:29:35.586Z,31.00
2024-03-01T18:32:03.240Z,37.60
2024-03-01T18:34:31.197Z,36.20
2024-03-01T18:36:58.966Z,30.80
2024-03-01T18:39:26.638Z,32.40
2024-03-01T18:41:54.195Z,36.70
2024-03-01T18:44:21.764Z,33.80
2024-03-01T18:46:49.504Z,34.30
2024-03-01T18:49:17.212Z,39.70
2024-03-01T18:51:44.847Z,46.70
2024-03-01T18:54:12.762Z,41.30
2024-03-01T18:56:40.477Z,48.60
2024-03-01T18:59:08.028Z,69.50
2024-03-01T19:01:35.833Z,46.00
2024-03-01T19:04:03.711Z,52.10
2024-03-01T19:06:31.748Z,54.60
2024-03-01T19:08:59.291Z,56.20
2024-03-01T19:11:26.893Z,50.00
2024-03-01T19:13:54.507Z,53.70
2024-03-01T19:16:22.505Z,65.70
2024-03-01T19:18:50.136Z,65.20
2024-03-01T19:21:18.047Z,93.80
2024-03-01T19:23:45.761Z,68.20
2024-03-01T19:26:13.435Z,56.90
2024-03-01T19:28:41.122Z,64.50
2024-03-01T19:31:08.666Z,52.60
2024-03-01T19:33:36.406Z,45.70
2024-03-01T19:36:04.042Z,43.00
2024-03-01T19:38:31.838Z,45.50
2024-03-01T19:40:59.397Z,51.60
2024-03-01T19:43:26.969Z,52.10
2024-03-01T19:45:54.612Z,46.40
2024-03-01T19:48:22.345Z,50.10
2024-03-01T19:50:50.137Z,52.50
2024-03-01T19:53:18.029Z,55.90
2024-03-01T19:55:45.725Z,49.20
2024-03-01T19:58:13.353Z,53.60
2024-03-01T20:00:41.051Z,51.70
2024-03-01T20:03:08.754Z,49.20
2024-03-01T20:05:36.412Z,45.40
2024-03-01T20:08:03.990Z,56.20
2024-03-01T20:10:31.683Z,54.80
2024-03-01T20:12:59.296Z,43.00
2024-03-01T20:15:26.973Z,48.60
2024-03-01T20:17:54.661Z,46.70
2024-03-01T20:20:22.384Z,46.80
2024-03-01T20:22:50.041Z,45.80
2024-03-01T20:25:17.925Z,47.50
2024-03-01T20:27:45.571Z,41.90
2024-03-01T20:30:13.352Z,49.30
2024-03-01T20:32:40.942Z,49.50
2024-03-01T20:35:08.569Z,49.20
2024-03-01T20:37:36.144Z,42.40
2024-03-01T20:40:03.804Z,46.80
2024-03-01T20:42:31.745Z,46.40
2024-03-01T20:44:59.725Z,39.90
2024-03-01T20:47:27.426Z,46.20
2024-03-01T20:49:55.039Z,45.10
2024-03-01T20:52:22.763Z,44.70
2024-03-01T20:54:50.477Z,52.30
2024-03-01T20:57:18.129Z,50.90
2024-03-01T20:59:45.690Z,47.20
2024-03-01T21:02:13.390Z,51.00
2024-03-01T21:04:41.384Z,50.20
2024-03-01T21:07:09.228Z,48.40
2024-03-01T21:09:36.837Z,50.70
2024-03-01T21:12:04.391Z,48.50
2024-03-01T21:14:31.959Z,50.70
2024-03-01T21:16:59.625Z,45.40
2024-03-01T21:19:27.233Z,48.70
2024-03-01T21:24:25.569Z,49.90
2024-03-01T21:26:53.537Z,43.10
2024-03-01T21:29:21.099Z,49.20
2024-03-01T21:31:48.761Z,48.30
2024-03-01T21:34:16.323Z,48.10
2024-03-01T21:36:44.017Z,47.50
2024-03-01T21:39:11.702Z,47.00
2024-03-01T21:41:39.303Z,49.50
2024-03-01T21:44:06.862Z,47.50
2024-03-01T21:46:34.934Z,45.00
2024-03-01T21:49:02.497Z,49.20
2024-03-01T21:51:30.402Z,49.00
2024-03-01T21:53:57.931Z,49.00
2024-03-01T21:56:25.584Z,46.30
2024-03-01T21:58:53.157Z,47.50
2024-03-01T22:01:20.829Z,45.70
2024-03-01T22:03:48.521Z,49.70
2024-03-01T22:06:16.461Z,42.00
2024-03-01T22:08:44.196Z,52.30
2024-03-01T22:11:11.764Z,49.10
2024-03-01T22:13:39.308Z,45.70
2024-03-01T22:16:06.874Z,47.90
2024-03-01T22:18:34.583Z,50.40
2024-03-01T22:21:02.291Z,49.20
2024-03-01T22:23:29.955Z,45.90
2024-03-01T22:25:57.610Z,41.90
2024-03-01T22:28:25.174Z,47.30
2024-03-01T22:30:52.941Z,45.60
2024-03-01T22:33:20.678Z,43.70
2024-03-01T22:35:48.590Z,51.90
2024-03-01T22:38:16.231Z,46.50
2024-03-01T22:40:43.792Z,43.80
2024-03-01T22:43:11.345Z,46.30
2024-03-01T22:45:38.952Z,41.40
2024-03-01T22:48:07.311Z,45.70
2024-03-01T22:50:35.869Z,43.60
2024-03-01T22:53:03.432Z,42.00
2024-03-01T22:55:31.096Z,45.70
2024-03-01T22:57:58.682Z,46.70
2024-03-01T23:00:26.328Z,44.90
2024-03-01T23:02:53.864Z,41.40
2024-03-01T23:05:21.424Z,45.60
2024-03-01T23:07:49.087Z,47.90
2024-03-01T23:10:16.954Z,45.20
2024-03-01T23:12:44.578Z,46.40
2024-03-01T23:15:12.297Z,45.70
2024-03-01T23:17:39.881Z,43.80
2024-03-01T23:20:07.501Z,44.00
2024-03-01T23:22:35.051Z,45.40
2024-03-01T23:25:02.702Z,42.50
2024-03-01T23:27:30.407Z,42.60
2024-03-01T23:29:58.034Z,42.20
2024-03-01T23:32:26.020Z,44.00
2024-03-01T23:34:53.679Z,43.90
2024-03-01T23:37:21.326Z,36.60
2024-03-01T23:39:49.097Z,44.80
2024-03-01T23:42:16.872Z,44.20
2024-03-01T23:44:44.432Z,44.10
2024-03-01T23:47:12.077Z,42.30
2024-03-01T23:49:39.633Z,43.00
2024-03-01T23:52:07.504Z,41.30
2024-03-01T23:54:35.085Z,41.40
2024-03-01T23:57:02.831Z,45.90
2024-03-01T23:59:30.385Z,36.20
